Time;durP1;ratioP1;P1;durP2;ratioP2;P2;SDS_P1;SDS_P2;PMS_P1;PMS_P2;Temp;Humidity;BMP_temperature;BMP_pressure;BME280_temperature;BME280_humidity;BME280_pressure;Samples;Min_cycle;Max_cycle;Signal;HPM_P1;HPM_P2
2021/12/01 00:00:59;;;;;;;60.42;30.05;;;;;;;;;;4841322;29;20041;-78
2021/12/01 00:03:25;;;;;;;37.10;19.50;;;;;;;;;;4842039;29;20150;-79
2021/12/01 00:05:52;;;;;;;28.55;15.93;;;;;;;;;;4851330;29;20030;-79
2021/12/01 00:08:18;;;;;;;29.75;15.93;;;;;;;;;;4851297;29;20046;-79
2021/12/01 00:10:44;;;;;;;46.28;25.33;;;;;;;;;;4851585;29;20081;-78
2021/12/01 00:13:15;;;;;;;48.58;28.58;;;;;;;;;;4854713;29;20066;-78
2021/12/01 00:15:42;;;;;;;37.20;21.50;;;;;;;;;;4842721;29;20052;-79
2021/12/01 00:18:08;;;;;;;31.10;17.40;;;;;;;;;;4859799;29;20392;-78
2021/12/01 00:20:35;;;;;;;24.10;14.38;;;;;;;;;;4844661;29;20122;-79
2021/12/01 00:23:01;;;;;;;19.73;11.88;;;;;;;;;;4841299;29;20556;-78
2021/12/01 00:25:29;;;;;;;25.45;15.10;;;;;;;;;;4845169;29;20050;-79
2021/12/01 00:27:55;;;;;;;21.02;12.20;;;;;;;;;;4841465;29;20046;-78
2021/12/01 00:30:22;;;;;;;22.20;12.60;;;;;;;;;;4846199;29;20092;-78
2021/12/01 00:32:48;;;;;;;20.20;10.77;;;;;;;;;;4851845;29;20038;-78
2021/12/01 00:35:14;;;;;;;14.38;8.85;;;;;;;;;;4856616;29;20045;-78
2021/12/01 00:37:41;;;;;;;15.65;9.05;;;;;;;;;;4840931;29;20037;-78
2021/12/01 00:40:08;;;;;;;16.23;8.70;;;;;;;;;;4849789;29;20046;-79
2021/12/01 00:42:34;;;;;;;14.07;8.68;;;;;;;;;;4843881;29;20030;-79
2021/12/01 00:45:07;;;;;;;16.00;8.98;;;;;;;;;;4842459;29;20041;-79
2021/12/01 00:50:13;;;;;;;14.95;8.30;;;;;;;;;;4858777;29;20052;-78
2021/12/01 00:52:39;;;;;;;20.02;11.57;;;;;;;;;;4849740;29;20499;-78
2021/12/01 00:55:05;;;;;;;15.20;9.13;;;;;;;;;;4844187;29;20052;-78
2021/12/01 00:57:32;;;;;;;17.10;8.90;;;;;;;;;;4858608;29;20038;-79
2021/12/01 00:59:57;;;;;;;14.90;7.85;;;;;;;;;;4851582;29;20411;-78
2021/12/01 01:02:24;;;;;;;15.82;7.40;;;;;;;;;;4850545;29;20034;-79
2021/12/01 01:04:50;;;;;;;22.88;17.33;;;;;;;;;;4840158;29;20109;-79
2021/12/01 01:07:16;;;;;;;13.15;8.60;;;;;;;;;;4851117;29;20041;-78
2021/12/01 01:09:43;;;;;;;14.23;6.70;;;;;;;;;;4858444;29;20068;-78
2021/12/01 01:17:41;;;;;;;16.02;7.72;;;;;;;;;;4846674;29;20808;-78
2021/12/01 01:20:10;;;;;;;9.98;5.65;;;;;;;;;;4839913;29;20041;-78
2021/12/01 01:22:37;;;;;;;13.25;5.82;;;;;;;;;;4848843;29;20061;-78
2021/12/01 01:25:04;;;;;;;11.27;5.97;;;;;;;;;;4857905;29;20108;-78
2021/12/01 01:27:30;;;;;;;13.60;8.50;;;;;;;;;;4858135;29;20056;-78
2021/12/01 01:29:56;;;;;;;11.18;6.05;;;;;;;;;;4841021;29;20065;-78
2021/12/01 01:32:22;;;;;;;18.83;9.75;;;;;;;;;;4857506;29;20041;-78
2021/12/01 01:34:48;;;;;;;16.75;8.98;;;;;;;;;;4857862;29;20048;-78
2021/12/01 01:37:14;;;;;;;15.18;7.00;;;;;;;;;;4857174;29;20037;-79
2021/12/01 01:39:41;;;;;;;12.32;7.03;;;;;;;;;;4857840;29;20037;-79
2021/12/01 01:42:07;;;;;;;12.02;6.00;;;;;;;;;;4841014;29;20078;-78
2021/12/01 01:44:33;;;;;;;10.48;4.85;;;;;;;;;;4857345;29;20029;-78
2021/12/01 01:46:59;;;;;;;11.60;6.28;;;;;;;;;;4857858;29;20037;-78
2021/12/01 01:49:44;;;;;;;13.30;6.20;;;;;;;;;;4856965;29;20041;-78
2021/12/01 01:52:10;;;;;;;12.07;7.63;;;;;;;;;;4858013;29;20037;-78
2021/12/01 01:54:36;;;;;;;9.90;5.28;;;;;;;;;;4848657;29;20046;-79
2021/12/01 01:57:02;;;;;;;14.70;7.55;;;;;;;;;;4839274;29;20048;-78
2021/12/01 01:59:28;;;;;;;22.20;10.88;;;;;;;;;;4853675;29;20030;-78
2021/12/01 02:01:57;;;;;;;15.63;9.13;;;;;;;;;;4840933;29;20049;-79
2021/12/01 02:04:25;;;;;;;15.90;7.97;;;;;;;;;;4857002;29;20036;-78
2021/12/01 02:06:51;;;;;;;14.75;8.10;;;;;;;;;;4857582;29;20146;-79
2021/12/01 02:09:20;;;;;;;19.83;10.15;;;;;;;;;;4856638;29;20198;-79
2021/12/01 02:11:47;;;;;;;23.83;11.57;;;;;;;;;;4857605;29;20765;-78
2021/12/01 02:14:13;;;;;;;17.67;9.30;;;;;;;;;;4856857;29;20044;-78
2021/12/01 02:16:39;;;;;;;15.32;8.63;;;;;;;;;;4857464;29;20040;-78
2021/12/01 02:19:05;;;;;;;13.07;7.80;;;;;;;;;;4840274;29;20491;-78
2021/12/01 02:21:31;;;;;;;14.45;7.15;;;;;;;;;;4858035;29;20136;-78
2021/12/01 02:24:03;;;;;;;12.60;7.25;;;;;;;;;;4861745;29;20034;-78
2021/12/01 02:26:30;;;;;;;15.65;8.40;;;;;;;;;;4863842;29;20044;-78
2021/12/01 02:28:58;;;;;;;15.00;7.72;;;;;;;;;;4862448;29;20764;-78
2021/12/01 02:31:25;;;;;;;11.93;6.20;;;;;;;;;;4845259;29;20042;-78
2021/12/01 02:33:52;;;;;;;13.20;7.53;;;;;;;;;;4844896;29;20758;-78
2021/12/01 02:36:18;;;;;;;13.80;7.40;;;;;;;;;;4861561;29;20110;-78
2021/12/01 02:38:45;;;;;;;13.18;6.03;;;;;;;;;;4861347;29;20503;-78
2021/12/01 02:41:11;;;;;;;11.35;6.07;;;;;;;;;;4859464;29;20511;-78
2021/12/01 02:43:38;;;;;;;11.73;6.97;;;;;;;;;;4854827;29;20069;-79
2021/12/01 02:46:04;;;;;;;10.70;5.78;;;;;;;;;;4846033;29;20052;-78
2021/12/01 02:48:30;;;;;;;13.43;5.93;;;;;;;;;;4863230;29;20034;-78
2021/12/01 02:50:58;;;;;;;10.52;5.30;;;;;;;;;;4852568;29;20202;-78
2021/12/01 02:53:25;;;;;;;10.90;5.53;;;;;;;;;;4844918;29;20425;-78
2021/12/01 02:55:56;;;;;;;10.48;5.13;;;;;;;;;;4861979;29;20029;-79
2021/12/01 02:58:22;;;;;;;9.10;4.80;;;;;;;;;;4863390;29;20033;-78
2021/12/01 03:00:49;;;;;;;10.23;5.40;;;;;;;;;;4850954;29;20036;-78
2021/12/01 03:03:15;;;;;;;9.48;5.55;;;;;;;;;;4863491;29;20036;-78
2021/12/01 03:05:41;;;;;;;10.55;5.78;;;;;;;;;;4862495;29;20095;-78
2021/12/01 03:08:08;;;;;;;11.18;6.30;;;;;;;;;;4859283;29;20494;-78
2021/12/01 03:10:34;;;;;;;12.68;6.18;;;;;;;;;;4863284;29;20048;-78
2021/12/01 03:13:00;;;;;;;13.38;6.05;;;;;;;;;;4863724;29;20068;-78
2021/12/01 03:15:26;;;;;;;10.77;5.35;;;;;;;;;;4862956;29;20041;-78
2021/12/01 03:17:52;;;;;;;9.35;4.93;;;;;;;;;;4863184;29;20043;-78
2021/12/01 03:20:22;;;;;;;8.48;4.18;;;;;;;;;;4846193;29;20041;-78
2021/12/01 03:22:48;;;;;;;8.95;4.70;;;;;;;;;;4855632;29;20405;-78
2021/12/01 03:25:15;;;;;;;8.93;4.55;;;;;;;;;;4863008;29;20037;-78
2021/12/01 03:27:41;;;;;;;7.38;3.90;;;;;;;;;;4856703;29;20048;-78
2021/12/01 03:30:09;;;;;;;6.72;3.15;;;;;;;;;;4845977;29;20050;-78
2021/12/01 03:32:35;;;;;;;7.88;3.72;;;;;;;;;;4851025;29;20049;-78
2021/12/01 03:35:03;;;;;;;6.68;3.42;;;;;;;;;;4841038;29;20040;-78
2021/12/01 03:37:29;;;;;;;9.00;3.97;;;;;;;;;;4860201;29;20042;-79
2021/12/01 03:39:56;;;;;;;8.02;4.18;;;;;;;;;;4843799;29;20144;-78
2021/12/01 03:42:22;;;;;;;7.68;3.45;;;;;;;;;;4859237;29;20048;-78
2021/12/01 03:44:48;;;;;;;7.03;3.00;;;;;;;;;;4860204;29;20034;-78
2021/12/01 03:47:14;;;;;;;7.10;3.63;;;;;;;;;;4859999;29;20048;-78
2021/12/01 03:49:40;;;;;;;7.32;3.47;;;;;;;;;;4859585;29;20495;-78
2021/12/01 03:52:12;;;;;;;9.70;3.78;;;;;;;;;;4858444;29;20501;-78
2021/12/01 03:54:38;;;;;;;6.22;2.55;;;;;;;;;;4859762;29;20090;-78
2021/12/01 03:57:04;;;;;;;7.47;3.67;;;;;;;;;;4845217;29;20477;-78
2021/12/01 03:59:30;;;;;;;9.85;4.00;;;;;;;;;;4841093;29;20038;-78
2021/12/01 04:01:56;;;;;;;11.15;5.28;;;;;;;;;;4859760;29;20044;-78
2021/12/01 04:04:22;;;;;;;10.73;5.18;;;;;;;;;;4859123;29;20029;-78
2021/12/01 04:06:48;;;;;;;11.80;5.25;;;;;;;;;;4859360;29;20038;-78
2021/12/01 04:09:14;;;;;;;10.27;5.80;;;;;;;;;;4858831;29;20044;-78
2021/12/01 04:11:40;;;;;;;13.45;5.43;;;;;;;;;;4859675;29;20452;-78
2021/12/01 04:14:06;;;;;;;12.50;5.30;;;;;;;;;;4859027;29;20052;-78
2021/12/01 04:16:32;;;;;;;14.95;5.38;;;;;;;;;;4859024;29;20045;-78
2021/12/01 04:18:58;;;;;;;12.45;6.55;;;;;;;;;;4848909;29;20068;-78
2021/12/01 04:21:25;;;;;;;12.45;5.90;;;;;;;;;;4859533;29;20064;-78
2021/12/01 04:23:51;;;;;;;15.10;5.78;;;;;;;;;;4858374;29;20029;-78
2021/12/01 04:26:21;;;;;;;14.07;5.95;;;;;;;;;;4859234;29;20432;-78
2021/12/01 04:28:47;;;;;;;13.82;6.22;;;;;;;;;;4848965;29;20041;-78
2021/12/01 04:31:13;;;;;;;16.48;7.25;;;;;;;;;;4846014;29;20062;-78
2021/12/01 04:33:39;;;;;;;13.77;6.00;;;;;;;;;;4843589;29;20040;-78
2021/12/01 04:36:06;;;;;;;14.60;6.20;;;;;;;;;;4851327;29;20480;-78
2021/12/01 04:38:32;;;;;;;11.90;5.75;;;;;;;;;;4851008;29;20033;-78
2021/12/01 04:40:58;;;;;;;12.80;5.78;;;;;;;;;;4858726;29;20052;-78
2021/12/01 04:43:24;;;;;;;10.98;5.57;;;;;;;;;;4858799;29;20519;-78
2021/12/01 04:45:58;;;;;;;14.38;6.15;;;;;;;;;;4857991;29;20061;-78
2021/12/01 04:48:24;;;;;;;11.27;5.63;;;;;;;;;;4858542;29;20028;-78
2021/12/01 04:50:50;;;;;;;17.70;9.38;;;;;;;;;;4854647;29;20041;-78
2021/12/01 04:53:16;;;;;;;10.95;6.20;;;;;;;;;;4841312;29;20042;-78
2021/12/01 04:55:42;;;;;;;15.32;6.63;;;;;;;;;;4858120;29;20081;-78
2021/12/01 04:58:08;;;;;;;14.55;6.28;;;;;;;;;;4858706;29;20048;-77
2021/12/01 05:00:36;;;;;;;14.73;6.22;;;;;;;;;;4858115;29;20061;-77
2021/12/01 05:03:03;;;;;;;13.35;7.20;;;;;;;;;;4840479;29;20045;-77
2021/12/01 05:05:29;;;;;;;16.15;7.45;;;;;;;;;;4840007;29;20048;-77
2021/12/01 05:07:55;;;;;;;12.77;7.93;;;;;;;;;;4839524;29;20038;-77
2021/12/01 05:10:21;;;;;;;13.15;6.32;;;;;;;;;;4839981;29;20083;-78
2021/12/01 05:12:47;;;;;;;14.90;7.93;;;;;;;;;;4839627;29;20053;-78
2021/12/01 05:15:13;;;;;;;18.17;10.30;;;;;;;;;;4852862;29;20045;-78
2021/12/01 05:17:39;;;;;;;19.23;9.73;;;;;;;;;;4856913;29;20672;-78
2021/12/01 05:20:06;;;;;;;21.58;11.85;;;;;;;;;;4840008;29;20743;-77
2021/12/01 05:22:33;;;;;;;18.52;11.77;;;;;;;;;;4847149;29;20041;-78
2021/12/01 05:24:59;;;;;;;20.30;11.38;;;;;;;;;;4858174;29;20033;-77
2021/12/01 05:27:25;;;;;;;19.02;11.10;;;;;;;;;;4855695;29;20037;-77
2021/12/01 05:29:52;;;;;;;21.25;13.68;;;;;;;;;;4839661;29;20057;-77
2021/12/01 05:32:20;;;;;;;20.52;11.10;;;;;;;;;;4839486;29;20131;-77
2021/12/01 05:34:46;;;;;;;21.35;11.15;;;;;;;;;;4838114;29;20082;-78
2021/12/01 05:37:12;;;;;;;16.95;10.63;;;;;;;;;;4837777;29;20418;-77
2021/12/01 05:39:41;;;;;;;21.02;12.02;;;;;;;;;;4839250;29;20041;-78
2021/12/01 05:42:07;;;;;;;20.40;10.38;;;;;;;;;;4839735;29;20045;-77
2021/12/01 05:44:34;;;;;;;16.90;11.77;;;;;;;;;;4853189;29;20025;-77
2021/12/01 05:47:00;;;;;;;20.38;11.02;;;;;;;;;;4858121;29;20044;-78
2021/12/01 05:49:26;;;;;;;22.25;12.15;;;;;;;;;;4845475;29;20497;-77
2021/12/01 05:51:52;;;;;;;21.33;12.32;;;;;;;;;;4839576;29;20046;-77
2021/12/01 05:54:18;;;;;;;20.73;11.50;;;;;;;;;;4848330;29;20034;-77
2021/12/01 05:56:44;;;;;;;18.77;11.43;;;;;;;;;;4857396;29;20053;-77
2021/12/01 05:59:10;;;;;;;18.20;10.32;;;;;;;;;;4856827;29;20029;-77
2021/12/01 06:01:37;;;;;;;18.83;11.63;;;;;;;;;;4857356;29;20476;-77
2021/12/01 06:04:03;;;;;;;18.88;10.45;;;;;;;;;;4857504;29;20030;-77
2021/12/01 06:06:29;;;;;;;22.75;13.75;;;;;;;;;;4856956;29;20401;-77
2021/12/01 06:08:58;;;;;;;22.83;12.30;;;;;;;;;;4857533;29;20064;-78
2021/12/01 06:11:24;;;;;;;21.45;14.07;;;;;;;;;;4842695;29;20042;-78
2021/12/01 06:13:52;;;;;;;35.13;17.98;;;;;;;;;;4840857;29;20061;-77
2021/12/01 06:16:22;;;;;;;30.45;18.40;;;;;;;;;;4854501;29;20141;-78
2021/12/01 06:18:48;;;;;;;29.77;17.45;;;;;;;;;;4835968;29;20567;-77
2021/12/01 06:21:14;;;;;;;30.33;14.35;;;;;;;;;;4845998;29;20046;-77
2021/12/01 06:23:40;;;;;;;29.70;17.88;;;;;;;;;;4837364;29;20033;-78
2021/12/01 06:26:06;;;;;;;45.20;27.83;;;;;;;;;;4857358;29;20113;-77
2021/12/01 06:28:32;;;;;;;41.47;26.05;;;;;;;;;;4844187;29;20128;-78
2021/12/01 06:30:58;;;;;;;37.80;24.50;;;;;;;;;;4860150;29;20081;-77
2021/12/01 06:33:24;;;;;;;31.08;20.90;;;;;;;;;;4849755;29;20033;-77
2021/12/01 06:35:51;;;;;;;33.42;20.02;;;;;;;;;;4849522;29;20052;-80
2021/12/01 06:38:18;;;;;;;28.60;17.67;;;;;;;;;;4856053;29;20037;-77
2021/12/01 06:40:44;;;;;;;35.67;20.65;;;;;;;;;;4856985;29;20065;-78
2021/12/01 06:43:10;;;;;;;33.00;20.95;;;;;;;;;;4857102;29;20037;-77
2021/12/01 06:45:36;;;;;;;43.45;29.05;;;;;;;;;;4857247;29;20048;-79
2021/12/01 06:48:02;;;;;;;39.67;26.73;;;;;;;;;;4852019;29;20062;-78
2021/12/01 06:50:28;;;;;;;65.53;47.53;;;;;;;;;;4855525;29;20090;-78
2021/12/01 06:52:54;;;;;;;55.58;38.38;;;;;;;;;;4850505;29;20033;-78
2021/12/01 06:55:21;;;;;;;55.47;42.67;;;;;;;;;;4839861;29;20723;-78
2021/12/01 06:57:47;;;;;;;57.25;40.10;;;;;;;;;;4849723;29;20503;-77
2021/12/01 07:00:14;;;;;;;54.63;41.55;;;;;;;;;;4846373;29;20074;-78
2021/12/01 07:02:41;;;;;;;58.38;44.25;;;;;;;;;;4854539;29;20066;-78
2021/12/01 07:05:07;;;;;;;68.75;54.15;;;;;;;;;;4858620;29;20044;-78
2021/12/01 07:07:33;;;;;;;66.38;49.75;;;;;;;;;;4852296;29;20423;-78
2021/12/01 07:09:59;;;;;;;60.10;44.67;;;;;;;;;;4854488;29;20392;-78
2021/12/01 07:12:25;;;;;;;69.60;49.38;;;;;;;;;;4852832;29;20038;-78
2021/12/01 07:14:51;;;;;;;60.67;42.90;;;;;;;;;;4851886;29;20033;-78
2021/12/01 07:17:18;;;;;;;81.38;57.00;;;;;;;;;;4850082;29;20122;-78
2021/12/01 07:19:44;;;;;;;64.50;44.55;;;;;;;;;;4859862;29;20798;-78
2021/12/01 07:22:10;;;;;;;64.03;42.58;;;;;;;;;;4852771;29;20038;-77
2021/12/01 07:24:36;;;;;;;53.58;38.50;;;;;;;;;;4851924;29;20136;-78
2021/12/01 07:27:02;;;;;;;51.45;36.47;;;;;;;;;;4853884;29;20038;-78
2021/12/01 07:29:30;;;;;;;52.00;35.45;;;;;;;;;;4858874;29;20695;-78
2021/12/01 07:31:56;;;;;;;12.48;7.60;;;;;;;;;;4854049;29;20038;-78
2021/12/01 07:34:22;;;;;;;13.85;9.93;;;;;;;;;;4855015;29;20041;-78
2021/12/01 07:36:49;;;;;;;71.32;49.85;;;;;;;;;;4855049;29;20052;-78
2021/12/01 07:39:15;;;;;;;85.53;59.55;;;;;;;;;;4854111;29;20079;-78
2021/12/01 07:41:41;;;;;;;60.00;41.13;;;;;;;;;;4843050;29;20126;-78
2021/12/01 07:44:07;;;;;;;82.05;42.90;;;;;;;;;;4841385;29;20071;-78
2021/12/01 07:46:33;;;;;;;97.22;37.08;;;;;;;;;;4862034;29;20036;-78
2021/12/01 07:48:59;;;;;;;84.13;31.98;;;;;;;;;;4863265;29;20065;-78
2021/12/01 07:51:25;;;;;;;18.60;10.48;;;;;;;;;;4854519;29;20107;-78
2021/12/01 07:53:53;;;;;;;26.77;16.98;;;;;;;;;;4855223;29;20495;-78
2021/12/01 07:56:19;;;;;;;52.63;35.60;;;;;;;;;;4852148;29;20041;-78
2021/12/01 07:58:45;;;;;;;48.33;35.90;;;;;;;;;;4855043;29;20404;-78
2021/12/01 08:01:11;;;;;;;41.85;29.00;;;;;;;;;;4844398;29;20038;-78
2021/12/01 08:03:37;;;;;;;31.85;21.90;;;;;;;;;;4859483;29;20033;-77
2021/12/01 08:06:03;;;;;;;39.75;23.67;;;;;;;;;;4867174;29;20035;-77
2021/12/01 08:08:29;;;;;;;34.25;21.25;;;;;;;;;;4853430;29;20392;-78
2021/12/01 08:10:55;;;;;;;36.45;23.27;;;;;;;;;;4854501;29;20026;-78
2021/12/01 08:13:22;;;;;;;40.25;23.88;;;;;;;;;;4856384;29;20468;-78
2021/12/01 08:15:48;;;;;;;32.65;21.73;;;;;;;;;;4858917;29;20034;-78
2021/12/01 08:18:14;;;;;;;30.00;17.52;;;;;;;;;;4848888;29;20585;-78
2021/12/01 08:20:40;;;;;;;25.30;15.82;;;;;;;;;;4866383;29;20049;-78
2021/12/01 08:23:06;;;;;;;23.13;15.23;;;;;;;;;;4854923;29;20046;-78
2021/12/01 08:25:33;;;;;;;30.30;19.58;;;;;;;;;;4866795;29;20361;-78
2021/12/01 08:28:01;;;;;;;27.10;17.90;;;;;;;;;;4858994;29;20069;-78
2021/12/01 08:30:27;;;;;;;29.10;17.35;;;;;;;;;;4858876;29;20061;-78
2021/12/01 08:32:54;;;;;;;22.13;14.32;;;;;;;;;;4841792;29;20091;-78
2021/12/01 08:35:20;;;;;;;23.50;14.73;;;;;;;;;;4845373;29;20034;-78
2021/12/01 08:37:46;;;;;;;21.17;12.90;;;;;;;;;;4849160;29;20049;-78
2021/12/01 08:40:14;;;;;;;18.90;13.13;;;;;;;;;;4851406;29;20087;-78
2021/12/01 08:42:41;;;;;;;18.73;12.68;;;;;;;;;;4855466;29;20417;-78
2021/12/01 08:45:07;;;;;;;43.45;24.48;;;;;;;;;;4846425;29;20125;-78
2021/12/01 08:47:33;;;;;;;29.85;15.68;;;;;;;;;;4851355;29;20052;-78
2021/12/01 08:49:59;;;;;;;9.88;5.22;;;;;;;;;;4844241;29;20061;-78
2021/12/01 08:52:25;;;;;;;12.35;5.20;;;;;;;;;;4857533;29;20663;-78
2021/12/01 08:54:51;;;;;;;8.80;4.55;;;;;;;;;;4837666;29;20045;-78
2021/12/01 08:57:18;;;;;;;10.82;4.47;;;;;;;;;;4849203;29;20037;-78
2021/12/01 08:59:45;;;;;;;8.45;4.60;;;;;;;;;;4846611;29;20033;-78
2021/12/01 09:02:11;;;;;;;10.32;4.93;;;;;;;;;;4848502;29;20034;-78
2021/12/01 09:04:37;;;;;;;12.23;7.40;;;;;;;;;;4843188;29;20821;-78
2021/12/01 09:07:03;;;;;;;10.48;5.10;;;;;;;;;;4850088;29;20069;-78
2021/12/01 09:09:30;;;;;;;11.23;6.13;;;;;;;;;;4849760;29;20368;-79
2021/12/01 09:11:56;;;;;;;15.02;8.18;;;;;;;;;;4852342;29;20041;-78
2021/12/01 09:14:26;;;;;;;13.25;7.30;;;;;;;;;;4858388;29;20033;-78
2021/12/01 09:16:55;;;;;;;16.42;9.85;;;;;;;;;;4858486;29;20044;-78
2021/12/01 09:19:21;;;;;;;15.98;8.93;;;;;;;;;;4857661;29;20547;-78
2021/12/01 09:21:47;;;;;;;26.85;18.88;;;;;;;;;;4857404;29;20038;-78
2021/12/01 09:24:14;;;;;;;8.88;4.45;;;;;;;;;;4866271;29;20375;-78
2021/12/01 09:26:41;;;;;;;9.70;5.22;;;;;;;;;;4854640;29;20037;-78
2021/12/01 09:29:07;;;;;;;9.43;5.93;;;;;;;;;;4850564;29;20038;-79
2021/12/01 09:31:33;;;;;;;12.43;6.93;;;;;;;;;;4853283;29;20045;-78
2021/12/01 09:33:59;;;;;;;14.32;7.63;;;;;;;;;;4857231;29;20030;-78
2021/12/01 09:36:25;;;;;;;16.30;7.63;;;;;;;;;;4840152;29;20038;-78
2021/12/01 09:38:51;;;;;;;15.20;6.68;;;;;;;;;;4856477;29;20052;-79
2021/12/01 09:41:17;;;;;;;16.40;9.38;;;;;;;;;;4842576;29;20046;-79
2021/12/01 09:43:43;;;;;;;14.00;7.97;;;;;;;;;;4866243;29;20037;-79
2021/12/01 09:46:10;;;;;;;12.45;6.95;;;;;;;;;;4875894;29;20037;-79
2021/12/01 09:48:37;;;;;;;14.50;7.25;;;;;;;;;;4856981;29;20099;-79
2021/12/01 09:51:03;;;;;;;18.65;12.05;;;;;;;;;;4842926;29;20097;-79
2021/12/01 09:53:29;;;;;;;16.80;10.27;;;;;;;;;;4848961;29;20045;-79
2021/12/01 09:55:56;;;;;;;16.60;6.32;;;;;;;;;;4842195;29;20029;-79
2021/12/01 09:58:24;;;;;;;13.75;6.70;;;;;;;;;;4852496;29;20041;-79
2021/12/01 10:00:56;;;;;;;15.65;7.68;;;;;;;;;;4854284;29;20488;-79
2021/12/01 10:03:23;;;;;;;15.25;8.18;;;;;;;;;;4843011;29;20041;-79
2021/12/01 10:06:13;;;;;;;18.45;8.38;;;;;;;;;;4838877;29;20480;-79
2021/12/01 10:08:42;;;;;;;13.25;8.20;;;;;;;;;;4850184;29;20040;-79
2021/12/01 10:11:13;;;;;;;13.65;8.13;;;;;;;;;;4860611;29;20722;-79
2021/12/01 10:13:43;;;;;;;11.13;6.72;;;;;;;;;;4844217;29;20722;-79
2021/12/01 10:16:11;;;;;;;13.93;7.20;;;;;;;;;;4857641;29;20041;-79
2021/12/01 10:18:39;;;;;;;13.48;6.90;;;;;;;;;;4856274;29;20087;-79
2021/12/01 10:21:11;;;;;;;15.57;8.20;;;;;;;;;;4857009;29;20041;-79
2021/12/01 10:23:38;;;;;;;13.48;7.63;;;;;;;;;;4866866;29;20037;-79
2021/12/01 10:26:09;;;;;;;19.13;7.05;;;;;;;;;;4839722;29;20030;-79
2021/12/01 10:28:36;;;;;;;10.45;6.20;;;;;;;;;;4854778;29;20117;-79
2021/12/01 10:31:03;;;;;;;14.70;6.70;;;;;;;;;;4859161;29;20590;-78
2021/12/01 10:33:29;;;;;;;12.93;7.32;;;;;;;;;;4852343;29;20571;-80
2021/12/01 10:35:57;;;;;;;10.95;5.97;;;;;;;;;;4852585;29;20090;-79
2021/12/01 10:38:27;;;;;;;10.70;6.43;;;;;;;;;;4845418;29;20819;-79
2021/12/01 10:41:10;;;;;;;10.13;4.50;;;;;;;;;;4850501;29;20022;-79
2021/12/01 10:43:41;;;;;;;8.98;3.95;;;;;;;;;;4841313;29;20113;-79
2021/12/01 10:46:11;;;;;;;9.68;4.90;;;;;;;;;;4855686;29;20034;-79
2021/12/01 10:48:40;;;;;;;9.45;4.30;;;;;;;;;;4864970;29;20099;-78
2021/12/01 10:51:06;;;;;;;7.25;3.75;;;;;;;;;;4855390;29;20415;-79
2021/12/01 10:53:32;;;;;;;8.45;4.20;;;;;;;;;;4864872;29;20037;-79
2021/12/01 10:56:03;;;;;;;9.57;4.57;;;;;;;;;;4860668;29;20038;-79
2021/12/01 10:58:37;;;;;;;9.30;3.78;;;;;;;;;;4853525;29;20041;-79
2021/12/01 11:01:04;;;;;;;10.75;5.35;;;;;;;;;;4860519;29;20060;-78
2021/12/01 11:03:32;;;;;;;12.20;5.88;;;;;;;;;;4852628;29;20034;-78
2021/12/01 11:06:08;;;;;;;10.57;6.13;;;;;;;;;;4840736;29;20022;-79
2021/12/01 11:08:36;;;;;;;13.65;7.15;;;;;;;;;;4857722;29;20987;-79
2021/12/01 11:11:05;;;;;;;13.68;7.15;;;;;;;;;;4842047;29;20030;-78
2021/12/01 11:13:31;;;;;;;13.73;7.22;;;;;;;;;;4859649;29;20091;-79
2021/12/01 11:15:58;;;;;;;10.50;4.80;;;;;;;;;;4857440;29;20037;-78
2021/12/01 11:18:30;;;;;;;11.27;4.32;;;;;;;;;;4859936;29;20069;-78
2021/12/01 11:20:58;;;;;;;9.50;4.57;;;;;;;;;;4864712;29;20106;-78
2021/12/01 11:23:31;;;;;;;10.07;4.55;;;;;;;;;;4850430;29;20462;-79
2021/12/01 11:26:05;;;;;;;9.68;4.55;;;;;;;;;;4842040;29;20044;-78
2021/12/01 11:28:32;;;;;;;14.75;5.38;;;;;;;;;;4860130;29;20544;-78
2021/12/01 11:31:00;;;;;;;12.95;5.65;;;;;;;;;;4859757;29;20519;-79
2021/12/01 11:33:27;;;;;;;13.23;6.28;;;;;;;;;;4859992;29;20041;-78
2021/12/01 11:35:57;;;;;;;13.02;6.80;;;;;;;;;;4860790;29;20089;-78
2021/12/01 11:38:23;;;;;;;10.10;5.95;;;;;;;;;;4848022;29;20476;-78
2021/12/01 11:40:50;;;;;;;13.18;5.47;;;;;;;;;;4851746;24;20069;-78
2021/12/01 11:43:18;;;;;;;10.02;5.65;;;;;;;;;;4849673;29;20040;-79
2021/12/01 11:45:45;;;;;;;14.13;6.93;;;;;;;;;;4842315;29;20038;-78
2021/12/01 11:48:21;;;;;;;15.30;5.80;;;;;;;;;;4832541;29;20057;-78
2021/12/01 11:50:54;;;;;;;18.67;8.63;;;;;;;;;;4841387;29;20034;-78
2021/12/01 11:53:20;;;;;;;17.55;8.32;;;;;;;;;;4836686;29;20035;-77
2021/12/01 11:55:47;;;;;;;16.08;8.32;;;;;;;;;;4823515;29;20030;-77
2021/12/01 11:58:33;;;;;;;15.98;7.53;;;;;;;;;;4838386;29;20433;-78
2021/12/01 12:00:59;;;;;;;11.65;6.03;;;;;;;;;;4835328;29;20103;-78
2021/12/01 12:03:26;;;;;;;15.98;5.97;;;;;;;;;;4822036;29;20099;-77
2021/12/01 12:06:11;;;;;;;12.70;6.47;;;;;;;;;;4832430;29;20510;-78
2021/12/01 12:08:56;;;;;;;10.88;6.05;;;;;;;;;;4834539;29;20048;-78
2021/12/01 12:11:40;;;;;;;10.65;6.43;;;;;;;;;;4850150;29;20052;-77
2021/12/01 12:14:06;;;;;;;14.98;7.80;;;;;;;;;;4844896;29;20166;-78
2021/12/01 12:16:33;;;;;;;13.60;7.18;;;;;;;;;;4840840;29;20111;-78
2021/12/01 12:18:59;;;;;;;14.80;8.75;;;;;;;;;;4838235;29;20097;-77
2021/12/01 12:24:11;;;;;;;16.55;9.05;;;;;;;;;;4826092;29;20053;-77
2021/12/01 12:26:40;;;;;;;23.25;11.82;;;;;;;;;;4825816;29;20041;-77
2021/12/01 12:29:08;;;;;;;23.63;13.20;;;;;;;;;;4847570;29;20476;-77
2021/12/01 12:31:34;;;;;;;16.10;9.98;;;;;;;;;;4855964;29;20480;-77
2021/12/01 12:34:08;;;;;;;17.45;10.57;;;;;;;;;;4840577;29;20037;-77
2021/12/01 12:36:39;;;;;;;19.77;10.10;;;;;;;;;;4829065;29;20034;-77
2021/12/01 12:39:07;;;;;;;20.20;11.32;;;;;;;;;;4840180;29;20042;-77
2021/12/01 12:41:53;;;;;;;19.65;11.18;;;;;;;;;;4840404;29;20037;-78
2021/12/01 12:44:37;;;;;;;22.73;13.90;;;;;;;;;;4835374;29;20600;-77
2021/12/01 12:47:09;;;;;;;21.80;10.07;;;;;;;;;;4823909;29;20030;-77
2021/12/01 12:49:39;;;;;;;19.05;9.98;;;;;;;;;;4836731;29;20559;-76
2021/12/01 12:52:27;;;;;;;15.90;8.32;;;;;;;;;;4840593;29;20026;-76
2021/12/01 12:54:56;;;;;;;30.30;16.77;;;;;;;;;;4845792;29;20046;-77
2021/12/01 12:57:23;;;;;;;21.70;14.57;;;;;;;;;;4842007;29;20162;-77
2021/12/01 13:00:09;;;;;;;16.83;11.13;;;;;;;;;;4840145;29;20421;-77
2021/12/01 13:02:35;;;;;;;19.08;9.05;;;;;;;;;;4822874;29;20049;-77
2021/12/01 13:05:02;;;;;;;21.90;9.73;;;;;;;;;;4839720;29;20046;-77
2021/12/01 13:07:33;;;;;;;27.60;15.77;;;;;;;;;;4839782;29;20114;-77
2021/12/01 13:10:08;;;;;;;34.15;19.63;;;;;;;;;;4846942;29;20048;-77
2021/12/01 13:12:51;;;;;;;30.05;18.10;;;;;;;;;;4836405;29;20041;-77
2021/12/01 13:15:18;;;;;;;23.15;14.20;;;;;;;;;;4841411;29;20046;-77
2021/12/01 13:17:51;;;;;;;21.55;11.00;;;;;;;;;;4853569;29;20474;-77
2021/12/01 13:20:21;;;;;;;23.88;12.80;;;;;;;;;;4839614;29;20037;-77
2021/12/01 13:23:20;;;;;;;27.73;17.90;;;;;;;;;;4839776;29;20030;-77
2021/12/01 13:25:54;;;;;;;26.42;14.55;;;;;;;;;;4815883;29;20520;-76
2021/12/01 13:28:28;;;;;;;21.75;12.57;;;;;;;;;;4839694;29;20034;-77
2021/12/01 13:30:58;;;;;;;21.38;11.75;;;;;;;;;;4840569;29;20045;-77
2021/12/01 13:33:25;;;;;;;20.33;12.27;;;;;;;;;;4839463;29;20131;-77
2021/12/01 13:35:51;;;;;;;26.67;15.15;;;;;;;;;;4837611;29;20586;-77
2021/12/01 13:38:27;;;;;;;25.20;13.38;;;;;;;;;;4822011;29;20035;-77
2021/12/01 13:40:53;;;;;;;19.80;11.60;;;;;;;;;;4835024;29;20054;-77
2021/12/01 13:43:20;;;;;;;17.85;9.18;;;;;;;;;;4825693;29;20034;-77
2021/12/01 13:45:56;;;;;;;23.33;10.05;;;;;;;;;;4837250;29;20049;-77
2021/12/01 13:48:22;;;;;;;15.70;7.32;;;;;;;;;;4825550;29;20042;-77
2021/12/01 13:50:48;;;;;;;18.70;7.47;;;;;;;;;;4835434;29;20099;-77
2021/12/01 13:53:15;;;;;;;15.48;8.60;;;;;;;;;;4839334;29;20473;-77
2021/12/01 13:55:41;;;;;;;21.85;10.02;;;;;;;;;;4850046;29;20066;-77
2021/12/01 13:58:20;;;;;;;24.08;9.18;;;;;;;;;;4849423;29;20039;-77
2021/12/01 14:00:47;;;;;;;23.42;12.30;;;;;;;;;;4838930;29;20038;-77
2021/12/01 14:03:15;;;;;;;28.30;14.45;;;;;;;;;;4838863;29;20059;-77
2021/12/01 14:05:44;;;;;;;21.73;10.40;;;;;;;;;;4838897;29;20613;-77
2021/12/01 14:08:29;;;;;;;17.00;8.88;;;;;;;;;;4837910;29;20086;-77
2021/12/01 14:11:01;;;;;;;17.30;8.63;;;;;;;;;;4833218;29;20096;-77
2021/12/01 14:13:28;;;;;;;18.05;9.93;;;;;;;;;;4838671;29;20034;-77
2021/12/01 14:15:56;;;;;;;16.45;8.30;;;;;;;;;;4834258;29;20050;-77
2021/12/01 14:18:22;;;;;;;18.45;9.07;;;;;;;;;;4853679;29;20030;-77
2021/12/01 14:21:08;;;;;;;11.80;5.70;;;;;;;;;;4838187;29;20038;-77
2021/12/01 14:23:34;;;;;;;20.15;9.68;;;;;;;;;;4829064;29;20030;-78
2021/12/01 14:26:00;;;;;;;21.77;9.95;;;;;;;;;;4831955;29;20030;-77
2021/12/01 14:28:26;;;;;;;23.35;11.88;;;;;;;;;;4831474;29;20526;-77
2021/12/01 14:30:52;;;;;;;19.58;9.40;;;;;;;;;;4835553;29;20050;-77
2021/12/01 14:33:19;;;;;;;23.50;10.85;;;;;;;;;;4824495;29;20476;-78
2021/12/01 14:35:46;;;;;;;23.25;10.77;;;;;;;;;;4831579;29;20041;-77
2021/12/01 14:38:14;;;;;;;16.77;9.15;;;;;;;;;;4834291;29;20096;-77
2021/12/01 14:40:44;;;;;;;15.80;7.95;;;;;;;;;;4834997;29;20507;-77